createdAt,value
2022-10-28T00:02:10.188Z,9.10
2022-10-28T00:07:12.723Z,9.10
2022-10-28T00:12:15.146Z,9.10
2022-10-28T00:17:17.602Z,9.10
2022-10-28T00:22:20.125Z,9.20
2022-10-28T00:27:22.534Z,9.10
2022-10-28T00:32:24.962Z,9.10
2022-10-28T00:37:27.368Z,9.10
2022-10-28T00:42:29.763Z,9.10
2022-10-28T00:47:55.234Z,9.20
2022-10-28T00:53:06.380Z,9.10
2022-10-28T00:58:10.953Z,9.10
2022-10-28T01:03:13.424Z,9.10
2022-10-28T01:08:16.735Z,9.10
2022-10-28T01:13:34.199Z,9.00
2022-10-28T01:18:59.823Z,9.00
2022-10-28T01:24:34.812Z,9.00
2022-10-28T01:29:54.789Z,9.00
2022-10-28T01:35:24.124Z,8.90
2022-10-28T01:40:29.210Z,8.90
2022-10-28T01:46:00.198Z,9.00
2022-10-28T01:51:16.725Z,8.90
2022-10-28T01:56:28.611Z,8.90
2022-10-28T02:01:33.041Z,8.90
2022-10-28T02:06:36.933Z,8.70
2022-10-28T02:11:54.502Z,8.90
2022-10-28T02:17:19.447Z,9.00
2022-10-28T02:22:33.034Z,8.90
2022-10-28T02:27:56.015Z,8.90
2022-10-28T02:33:05.090Z,8.90
2022-10-28T02:38:13.714Z,8.90
2022-10-28T02:43:19.393Z,9.00
2022-10-28T02:48:30.052Z,9.00
2022-10-28T02:53:47.645Z,9.00
2022-10-28T02:58:50.216Z,9.00
2022-10-28T03:03:52.816Z,9.10
2022-10-28T03:08:55.216Z,9.00
2022-10-28T03:13:57.608Z,9.10
2022-10-28T03:19:00.026Z,9.10
2022-10-28T03:24:02.478Z,9.00
2022-10-28T03:29:04.962Z,9.10
2022-10-28T03:34:07.353Z,9.00
2022-10-28T03:39:09.694Z,9.00
2022-10-28T03:44:14.378Z,8.80
2022-10-28T03:49:16.754Z,8.80
2022-10-28T03:54:19.186Z,8.80
2022-10-28T03:59:21.602Z,8.80
2022-10-28T04:04:28.322Z,8.70
2022-10-28T04:09:33.197Z,8.70
2022-10-28T04:14:35.536Z,8.70
2022-10-28T04:19:38.003Z,8.70
2022-10-28T04:24:40.375Z,8.70
2022-10-28T04:29:42.734Z,8.70
2022-10-28T04:34:45.112Z,8.60
2022-10-28T04:39:47.629Z,8.70
2022-10-28T04:44:50.368Z,8.70
2022-10-28T04:49:52.754Z,8.60
2022-10-28T04:54:56.635Z,8.60
2022-10-28T04:59:59.005Z,8.70
2022-10-28T05:05:03.719Z,8.60
2022-10-28T05:10:06.883Z,8.70
2022-10-28T05:15:10.342Z,8.70
2022-10-28T05:20:14.342Z,8.70
2022-10-28T05:25:17.735Z,8.80
2022-10-28T05:30:20.424Z,8.70
2022-10-28T05:35:25.342Z,8.70
2022-10-28T05:40:27.808Z,8.70
2022-10-28T05:45:36.525Z,9.10
2022-10-28T05:50:38.944Z,8.60
2022-10-28T05:55:45.205Z,8.60
2022-10-28T06:00:50.142Z,8.70
2022-10-28T06:05:54.204Z,8.60
2022-10-28T06:10:55.309Z,8.60
2022-10-28T06:15:57.679Z,8.70
2022-10-28T06:21:00.071Z,8.70
2022-10-28T06:26:03.836Z,8.80
2022-10-28T06:31:10.649Z,8.80
2022-10-28T06:36:13.071Z,8.80
2022-10-28T06:41:15.439Z,9.00
2022-10-28T06:46:17.812Z,9.10
2022-10-28T06:51:21.844Z,9.40
2022-10-28T06:56:24.229Z,9.40
2022-10-28T07:01:26.658Z,9.70
2022-10-28T07:06:29.241Z,10.00
2022-10-28T07:11:31.606Z,10.20
2022-10-28T07:16:33.940Z,10.60
2022-10-28T07:21:39.262Z,11.00
2022-10-28T07:26:41.645Z,11.30
2022-10-28T07:31:44.353Z,11.80
2022-10-28T07:36:50.805Z,11.90
2022-10-28T07:41:53.179Z,12.20
2022-10-28T07:46:58.028Z,12.40
2022-10-28T07:52:00.746Z,13.00
2022-10-28T07:57:04.019Z,12.90
2022-10-28T08:02:06.427Z,13.20
2022-10-28T08:07:08.824Z,13.40
2022-10-28T08:12:13.768Z,13.60
2022-10-28T08:17:16.195Z,13.60
2022-10-28T08:22:18.511Z,13.90
2022-10-28T08:27:20.878Z,14.10
2022-10-28T08:32:23.196Z,14.10
2022-10-28T08:37:26.117Z,14.40
2022-10-28T08:42:41.463Z,14.70
2022-10-28T08:48:10.677Z,14.90
2022-10-28T08:53:37.745Z,15.10
2022-10-28T08:58:43.796Z,15.40
2022-10-28T09:03:50.875Z,15.50
2022-10-28T09:08:54.275Z,15.70
2022-10-28T09:14:21.394Z,15.90
2022-10-28T09:19:38.784Z,16.10
2022-10-28T09:24:52.343Z,16.30
2022-10-28T09:30:27.199Z,16.50
2022-10-28T09:35:36.569Z,16.60
2022-10-28T09:40:44.040Z,16.80
2022-10-28T09:45:48.158Z,17.00
2022-10-28T09:50:54.236Z,17.10
2022-10-28T09:55:57.273Z,17.30
2022-10-28T10:00:59.867Z,17.60
2022-10-28T10:06:21.610Z,17.90
2022-10-28T10:11:49.279Z,18.20
2022-10-28T10:16:59.290Z,18.40
2022-10-28T10:22:01.751Z,18.50
2022-10-28T10:27:10.196Z,18.20
2022-10-28T10:32:30.210Z,18.20
2022-10-28T10:37:35.629Z,18.30
2022-10-28T10:42:46.506Z,18.40
2022-10-28T10:48:26.951Z,18.50
2022-10-28T10:53:32.312Z,18.50
2022-10-28T10:58:41.441Z,18.60
2022-10-28T11:03:55.821Z,18.50
2022-10-28T11:09:02.660Z,18.40
2022-10-28T11:14:12.755Z,18.30
2022-10-28T11:19:29.878Z,18.30
2022-10-28T11:24:44.955Z,18.40
2022-10-28T11:29:48.007Z,18.50
2022-10-28T11:34:56.369Z,18.50
2022-10-28T11:40:25.521Z,18.40
2022-10-28T11:45:51.425Z,18.60
2022-10-28T11:51:24.811Z,19.10
2022-10-28T11:56:47.904Z,19.60
2022-10-28T12:02:19.611Z,19.60
2022-10-28T12:07:25.233Z,19.60
2022-10-28T12:12:36.369Z,19.60
2022-10-28T12:18:08.288Z,19.80
2022-10-28T12:23:15.238Z,20.20
2022-10-28T12:28:21.681Z,20.20
2022-10-28T12:33:29.651Z,20.50
2022-10-28T12:38:43.169Z,20.60
2022-10-28T12:44:04.642Z,20.50
2022-10-28T12:49:16.624Z,20.50
2022-10-28T12:54:25.596Z,20.30
2022-10-28T12:59:57.572Z,20.10
2022-10-28T13:05:00.123Z,19.80
2022-10-28T13:11:07.290Z,19.90
2022-10-28T13:16:27.950Z,19.90
2022-10-28T13:22:00.056Z,20.00
2022-10-28T13:27:05.003Z,19.70
2022-10-28T13:32:23.542Z,19.60
2022-10-28T13:37:36.034Z,19.60
2022-10-28T13:42:47.363Z,19.50
2022-10-28T13:47:49.796Z,19.70
2022-10-28T13:53:27.593Z,19.60
2022-10-28T13:58:31.076Z,19.60
2022-10-28T14:03:34.732Z,19.40
2022-10-28T14:08:41.681Z,19.30
2022-10-28T14:13:48.142Z,19.20
2022-10-28T14:19:17.011Z,19.20
2022-10-28T14:24:42.690Z,19.00
2022-10-28T14:29:46.830Z,18.70
2022-10-28T14:34:49.780Z,18.60
2022-10-28T14:40:15.374Z,18.40
2022-10-28T14:45:40.996Z,18.30
2022-10-28T14:50:49.590Z,18.20
2022-10-28T14:56:00.476Z,18.00
2022-10-28T15:01:24.063Z,17.90
2022-10-28T15:06:39.097Z,17.80
2022-10-28T15:11:49.702Z,17.70
2022-10-28T15:16:52.858Z,17.60
2022-10-28T15:22:17.027Z,17.50
2022-10-28T15:27:20.222Z,17.40
2022-10-28T15:32:35.394Z,17.30
2022-10-28T15:37:38.337Z,17.00
2022-10-28T15:43:02.811Z,16.80
2022-10-28T15:48:13.538Z,16.60
2022-10-28T15:53:33.242Z,16.40
2022-10-28T15:58:43.494Z,16.20
2022-10-28T16:03:48.776Z,16.10
2022-10-28T16:09:09.905Z,16.10
2022-10-28T16:14:31.371Z,15.90
2022-10-28T16:19:40.161Z,15.80
2022-10-28T16:24:42.884Z,15.70
2022-10-28T16:29:45.674Z,15.50
2022-10-28T16:34:47.967Z,15.40
2022-10-28T16:39:50.582Z,15.00
2022-10-28T16:44:53.018Z,15.00
2022-10-28T16:49:57.286Z,14.80
2022-10-28T16:55:00.286Z,14.70
2022-10-28T17:00:02.666Z,14.50
2022-10-28T17:05:07.358Z,14.40
2022-10-28T17:10:10.024Z,14.30
2022-10-28T17:15:12.407Z,14.20
2022-10-28T17:20:14.800Z,14.10
2022-10-28T17:25:17.189Z,14.10
2022-10-28T17:30:19.822Z,14.00
2022-10-28T17:35:23.143Z,13.90
2022-10-28T17:40:25.460Z,13.90
2022-10-28T17:45:27.908Z,13.70
2022-10-28T17:50:30.218Z,13.70
2022-10-28T17:55:32.558Z,13.60
2022-10-28T18:00:34.904Z,13.60
2022-10-28T18:05:37.204Z,13.50
2022-10-28T18:10:39.474Z,13.50
2022-10-28T18:15:41.762Z,13.30
2022-10-28T18:20:44.114Z,13.10
2022-10-28T18:25:46.467Z,13.10
2022-10-28T18:30:48.851Z,13.10
2022-10-28T18:35:51.145Z,13.10
2022-10-28T18:40:53.718Z,13.00
2022-10-28T18:46:02.172Z,12.90
2022-10-28T18:51:09.447Z,12.90
2022-10-28T18:56:14.960Z,12.90
2022-10-28T19:01:23.398Z,13.00
2022-10-28T19:06:29.847Z,12.80
2022-10-28T19:11:33.791Z,12.70
2022-10-28T19:16:36.437Z,12.70
2022-10-28T19:21:38.708Z,12.80
2022-10-28T19:26:41.055Z,12.80
2022-10-28T19:31:43.505Z,12.70
2022-10-28T19:36:45.809Z,12.60
2022-10-28T19:41:49.777Z,12.80
2022-10-28T19:46:52.118Z,12.70
2022-10-28T19:51:54.413Z,12.70
2022-10-28T19:56:56.707Z,12.80
2022-10-28T20:01:59.040Z,12.80
2022-10-28T20:07:01.509Z,12.70
2022-10-28T20:12:03.896Z,12.80
2022-10-28T20:17:07.179Z,12.70
2022-10-28T20:22:09.716Z,12.70
2022-10-28T20:27:12.058Z,12.60
2022-10-28T20:32:15.790Z,12.70
2022-10-28T20:37:19.101Z,12.50
2022-10-28T20:42:21.399Z,12.50
2022-10-28T20:47:23.733Z,12.50
2022-10-28T20:52:26.062Z,12.40
2022-10-28T20:57:28.348Z,12.50
2022-10-28T21:02:30.801Z,12.50
2022-10-28T21:07:33.319Z,12.50
2022-10-28T21:12:35.610Z,12.60
2022-10-28T21:17:37.902Z,12.50
2022-10-28T21:22:40.209Z,12.60
2022-10-28T21:27:42.620Z,12.50
2022-10-28T21:32:44.890Z,12.50
2022-10-28T21:37:47.294Z,12.60
2022-10-28T21:42:50.258Z,12.50
2022-10-28T21:47:56.030Z,12.30
2022-10-28T21:53:03.871Z,12.40
2022-10-28T21:58:06.670Z,12.30
2022-10-28T22:03:12.788Z,12.30
2022-10-28T22:08:16.810Z,12.20
2022-10-28T22:13:19.098Z,12.00
2022-10-28T22:18:21.374Z,12.00
2022-10-28T22:23:23.735Z,11.90
2022-10-28T22:28:26.061Z,11.80
2022-10-28T22:33:28.637Z,11.80
2022-10-28T22:38:31.146Z,11.70
2022-10-28T22:43:33.984Z,11.60
2022-10-28T22:48:36.282Z,11.60
2022-10-28T22:53:39.985Z,11.50
2022-10-28T22:58:42.664Z,11.50
2022-10-28T23:03:46.868Z,11.40
2022-10-28T23:08:49.750Z,11.40
2022-10-28T23:13:55.627Z,11.20
2022-10-28T23:19:01.089Z,11.20
2022-10-28T23:24:03.415Z,11.10
2022-10-28T23:29:05.840Z,11.10
2022-10-28T23:34:08.107Z,11.10
2022-10-28T23:39:10.520Z,11.10
2022-10-28T23:44:12.821Z,11.00
2022-10-28T23:49:15.099Z,11.00
2022-10-28T23:54:17.431Z,11.00
2022-10-28T23:59:19.750Z,11.10
